createdAt,value
2023-04-18T00:00:19.251Z,12.54
2023-04-18T00:02:47.332Z,12.52
2023-04-18T00:05:18.240Z,12.54
2023-04-18T00:07:46.973Z,12.49
2023-04-18T00:10:15.207Z,12.50
2023-04-18T00:12:43.157Z,12.49
2023-04-18T00:15:11.690Z,12.52
2023-04-18T00:17:39.889Z,12.49
2023-04-18T00:20:12.785Z,12.53
2023-04-18T00:22:45.189Z,12.48
2023-04-18T00:25:12.680Z,12.44
2023-04-18T00:27:41.468Z,12.44
2023-04-18T00:30:09.401Z,12.39
2023-04-18T00:32:38.579Z,12.42
2023-04-18T00:35:07.099Z,12.37
2023-04-18T00:37:34.596Z,12.28
2023-04-18T00:40:02.158Z,12.28
2023-04-18T00:42:30.010Z,12.29
2023-04-18T00:44:57.489Z,12.26
2023-04-18T00:47:25.711Z,12.23
2023-04-18T00:49:54.435Z,12.18
2023-04-18T00:52:21.977Z,12.22
2023-04-18T00:54:49.780Z,12.17
2023-04-18T00:57:17.699Z,12.13
2023-04-18T00:59:49.814Z,12.16
2023-04-18T01:02:17.861Z,12.15
2023-04-18T01:04:45.570Z,12.16
2023-04-18T01:07:13.155Z,12.20
2023-04-18T01:09:41.352Z,12.18
2023-04-18T01:12:08.837Z,12.19
2023-04-18T01:14:36.347Z,12.18
2023-04-18T01:17:04.276Z,12.17
2023-04-18T01:19:31.800Z,12.17
2023-04-18T01:21:59.555Z,12.18
2023-04-18T01:24:29.810Z,12.20
2023-04-18T01:26:58.713Z,12.17
2023-04-18T01:29:26.792Z,12.13
2023-04-18T01:31:54.352Z,12.12
2023-04-18T01:34:21.825Z,12.04
2023-04-18T01:36:49.836Z,12.02
2023-04-18T01:39:18.437Z,12.05
2023-04-18T01:41:46.086Z,12.07
2023-04-18T01:44:17.271Z,12.07
2023-04-18T01:46:46.549Z,12.05
2023-04-18T01:49:14.156Z,12.00
2023-04-18T01:51:43.236Z,12.03
2023-04-18T01:54:10.783Z,12.00
2023-04-18T01:56:38.384Z,11.98
2023-04-18T01:59:06.454Z,11.99
2023-04-18T02:01:33.993Z,11.96
2023-04-18T02:04:01.796Z,11.99
2023-04-18T02:06:29.575Z,11.97
2023-04-18T02:08:57.109Z,11.92
2023-04-18T02:11:25.969Z,11.89
2023-04-18T02:13:53.495Z,11.86
2023-04-18T02:16:21.698Z,11.93
2023-04-18T02:18:52.450Z,11.90
2023-04-18T02:21:20.038Z,11.85
2023-04-18T02:23:49.618Z,11.84
2023-04-18T02:26:17.160Z,11.84
2023-04-18T02:28:44.660Z,11.87
2023-04-18T02:31:15.013Z,11.88
2023-04-18T02:33:43.432Z,11.91
2023-04-18T02:36:12.865Z,11.88
2023-04-18T02:38:42.272Z,11.90
2023-04-18T02:41:15.053Z,11.90
2023-04-18T02:43:43.114Z,11.87
2023-04-18T02:46:10.838Z,11.88
2023-04-18T02:48:38.447Z,11.95
2023-04-18T02:51:08.614Z,11.91
2023-04-18T02:53:36.502Z,11.88
2023-04-18T02:56:05.413Z,11.89
2023-04-18T02:58:35.938Z,11.89
2023-04-18T03:01:05.347Z,11.91
2023-04-18T03:03:38.943Z,11.81
2023-04-18T03:06:08.605Z,11.77
2023-04-18T03:08:36.958Z,11.67
2023-04-18T03:11:05.228Z,11.66
2023-04-18T03:13:34.016Z,11.65
2023-04-18T03:16:02.674Z,11.62
2023-04-18T03:18:30.405Z,11.60
2023-04-18T03:20:58.056Z,11.56
2023-04-18T03:23:26.155Z,11.55
2023-04-18T03:25:53.734Z,11.55
2023-04-18T03:28:22.014Z,11.54
2023-04-18T03:30:50.900Z,11.53
2023-04-18T03:33:18.698Z,11.56
2023-04-18T03:35:47.507Z,11.59
2023-04-18T03:38:15.431Z,11.58
2023-04-18T03:40:44.618Z,11.65
2023-04-18T03:43:12.647Z,11.67
2023-04-18T03:45:40.750Z,11.71
2023-04-18T03:48:08.298Z,11.71
2023-04-18T03:50:36.276Z,11.75
2023-04-18T03:53:04.520Z,11.72
2023-04-18T03:55:33.421Z,11.72
2023-04-18T03:58:01.544Z,11.75
2023-04-18T04:00:29.738Z,11.77
2023-04-18T04:02:58.350Z,11.79
2023-04-18T04:05:26.213Z,11.78
2023-04-18T04:07:54.079Z,11.79
2023-04-18T04:10:21.893Z,11.80
2023-04-18T04:12:49.550Z,11.78
2023-04-18T04:15:17.216Z,11.78
2023-04-18T04:17:45.597Z,11.79
2023-04-18T04:20:13.474Z,11.81
2023-04-18T04:22:41.531Z,11.82
2023-04-18T04:25:10.503Z,11.79
2023-04-18T04:27:39.039Z,11.81
2023-04-18T04:30:09.134Z,11.82
2023-04-18T04:32:38.984Z,11.85
2023-04-18T04:35:08.450Z,11.85
2023-04-18T04:37:36.810Z,11.84
2023-04-18T04:40:09.312Z,11.81
2023-04-18T04:42:41.151Z,11.86
2023-04-18T04:45:11.159Z,11.84
2023-04-18T04:47:38.803Z,11.87
2023-04-18T04:50:08.436Z,11.88
2023-04-18T04:52:38.570Z,11.86
2023-04-18T04:55:07.115Z,11.86
2023-04-18T04:57:34.717Z,11.87
2023-04-18T05:00:05.499Z,11.88
2023-04-18T05:02:33.139Z,11.87
2023-04-18T05:05:01.020Z,11.87
2023-04-18T05:07:28.827Z,11.83
2023-04-18T05:09:56.381Z,11.82
2023-04-18T05:12:23.925Z,11.85
2023-04-18T05:14:51.686Z,11.86
2023-04-18T05:17:19.151Z,11.85
2023-04-18T05:19:46.649Z,11.83
2023-04-18T05:22:14.490Z,11.84
2023-04-18T05:24:42.017Z,11.84
2023-04-18T05:27:09.935Z,11.82
2023-04-18T05:29:37.760Z,11.87
2023-04-18T05:32:06.697Z,11.82
2023-04-18T05:34:38.592Z,11.81
2023-04-18T05:37:06.709Z,11.80
2023-04-18T05:39:34.313Z,11.79
2023-04-18T05:42:02.301Z,11.77
2023-04-18T05:44:30.515Z,11.78
2023-04-18T05:46:58.064Z,11.79
2023-04-18T05:49:25.605Z,11.84
2023-04-18T05:51:53.391Z,11.86
2023-04-18T05:54:25.284Z,11.86
2023-04-18T05:56:54.879Z,11.87
2023-04-18T05:59:22.360Z,11.81
2023-04-18T06:01:49.951Z,11.79
2023-04-18T06:04:18.089Z,11.79
2023-04-18T06:06:46.231Z,11.82
2023-04-18T06:09:13.805Z,11.84
2023-04-18T06:11:41.606Z,11.87
2023-04-18T06:14:09.118Z,11.93
2023-04-18T06:16:37.729Z,11.95
2023-04-18T06:19:05.868Z,11.96
2023-04-18T06:21:33.400Z,12.08
2023-04-18T06:24:01.740Z,12.00
2023-04-18T06:26:32.017Z,12.00
2023-04-18T06:28:59.542Z,11.97
2023-04-18T06:31:28.799Z,11.99
2023-04-18T06:33:56.721Z,11.99
2023-04-18T06:36:24.245Z,12.01
2023-04-18T06:38:51.708Z,12.05
2023-04-18T06:41:19.548Z,12.04
2023-04-18T06:44:02.196Z,12.04
2023-04-18T06:46:33.075Z,12.07
2023-04-18T06:49:00.725Z,12.06
2023-04-18T06:51:28.985Z,12.07
2023-04-18T06:53:56.776Z,12.04
2023-04-18T06:56:24.341Z,11.99
2023-04-18T06:58:52.932Z,11.96
2023-04-18T07:01:21.085Z,11.96
2023-04-18T07:03:48.829Z,11.92
2023-04-18T07:06:16.444Z,11.90
2023-04-18T07:08:44.233Z,11.89
2023-04-18T07:11:13.332Z,11.95
2023-04-18T07:13:40.765Z,11.93
2023-04-18T07:16:09.726Z,11.98
2023-04-18T07:18:38.577Z,12.02
2023-04-18T07:21:09.144Z,12.00
2023-04-18T07:23:37.583Z,12.08
2023-04-18T07:26:05.906Z,12.03
2023-04-18T07:28:33.532Z,12.07
2023-04-18T07:31:03.148Z,12.10
2023-04-18T07:33:34.025Z,12.10
2023-04-18T07:36:02.925Z,12.12
2023-04-18T07:38:30.603Z,12.10
2023-04-18T07:40:59.686Z,12.15
2023-04-18T07:43:27.560Z,12.08
2023-04-18T07:45:55.345Z,12.10
2023-04-18T07:48:22.920Z,12.13
2023-04-18T07:50:51.192Z,12.17
2023-04-18T07:53:18.675Z,12.18
2023-04-18T07:55:46.660Z,12.20
2023-04-18T07:58:14.704Z,12.24
2023-04-18T08:00:45.465Z,12.25
2023-04-18T08:03:13.724Z,12.29
2023-04-18T08:05:42.908Z,12.34
2023-04-18T08:08:12.276Z,12.24
2023-04-18T08:10:40.153Z,12.23
2023-04-18T08:13:08.317Z,12.18
2023-04-18T08:15:36.053Z,12.22
2023-04-18T08:18:04.007Z,12.34
2023-04-18T08:20:31.649Z,12.33
2023-04-18T08:23:07.490Z,12.37
2023-04-18T08:25:36.985Z,12.44
2023-04-18T08:28:04.929Z,12.48
2023-04-18T08:30:32.573Z,12.57
2023-04-18T08:33:00.962Z,12.61
2023-04-18T08:35:28.591Z,12.69
2023-04-18T08:37:56.146Z,12.77
2023-04-18T08:40:24.533Z,12.81
2023-04-18T08:42:53.014Z,12.77
2023-04-18T08:45:21.048Z,12.79
2023-04-18T08:47:48.975Z,12.73
2023-04-18T08:50:17.319Z,12.69
2023-04-18T08:52:52.192Z,12.67
2023-04-18T08:55:22.349Z,12.70
2023-04-18T08:57:54.185Z,12.69
2023-04-18T09:00:22.806Z,12.76
2023-04-18T09:02:55.069Z,12.77
2023-04-18T09:05:25.298Z,12.78
2023-04-18T09:07:54.837Z,12.80
2023-04-18T09:10:33.513Z,12.91
2023-04-18T09:13:05.833Z,13.00
2023-04-18T09:15:34.483Z,13.05
2023-04-18T09:18:03.349Z,13.08
2023-04-18T09:20:37.917Z,13.08
2023-04-18T09:23:11.645Z,13.07
2023-04-18T09:25:44.523Z,13.07
2023-04-18T09:28:53.984Z,13.07
2023-04-18T09:31:23.004Z,13.13
2023-04-18T09:34:03.034Z,13.17
2023-04-18T09:36:32.406Z,13.11
2023-04-18T09:39:00.569Z,13.07
2023-04-18T09:41:30.543Z,13.06
2023-04-18T09:44:14.984Z,13.19
2023-04-18T09:46:47.215Z,13.30
2023-04-18T09:49:16.806Z,13.35
2023-04-18T09:51:46.239Z,13.35
2023-04-18T09:54:16.429Z,13.37
2023-04-18T09:56:45.270Z,13.50
2023-04-18T09:59:18.078Z,13.49
2023-04-18T10:01:48.567Z,13.57
2023-04-18T10:04:18.411Z,13.44
2023-04-18T10:06:46.853Z,13.40
2023-04-18T10:09:16.188Z,13.36
2023-04-18T10:11:44.693Z,13.38
2023-04-18T10:14:15.343Z,13.32
2023-04-18T10:16:45.601Z,13.31
2023-04-18T10:19:27.394Z,13.34
2023-04-18T10:21:57.265Z,13.32
2023-04-18T10:24:53.604Z,13.35
2023-04-18T10:27:49.199Z,13.39
2023-04-18T10:30:18.121Z,13.50
2023-04-18T10:32:46.606Z,13.51
2023-04-18T10:35:14.255Z,13.49
2023-04-18T10:37:51.973Z,13.48
2023-04-18T10:40:34.067Z,13.39
2023-04-18T10:43:02.410Z,13.31
2023-04-18T10:45:32.580Z,13.26
2023-04-18T10:48:23.937Z,13.20
2023-04-18T10:51:14.814Z,13.10
2023-04-18T10:53:57.002Z,12.98
2023-04-18T10:56:26.226Z,12.93
2023-04-18T10:58:54.235Z,12.93
2023-04-18T11:01:32.521Z,12.92
2023-04-18T11:04:01.501Z,12.90
2023-04-18T11:06:30.450Z,12.85
2023-04-18T11:09:11.798Z,12.90
2023-04-18T11:11:40.141Z,12.85
2023-04-18T11:14:07.837Z,12.83
2023-04-18T11:16:35.705Z,12.81
2023-04-18T11:19:25.835Z,12.73
2023-04-18T11:21:53.440Z,12.75
2023-04-18T11:24:24.579Z,12.70
2023-04-18T11:26:55.862Z,12.65
2023-04-18T11:29:24.071Z,12.58
2023-04-18T11:31:57.739Z,12.59
2023-04-18T11:34:31.084Z,12.51
2023-04-18T11:36:58.844Z,12.52
2023-04-18T11:39:26.662Z,12.57
2023-04-18T11:41:56.492Z,12.57
2023-04-18T11:44:25.913Z,12.57
2023-04-18T11:46:54.280Z,12.58
2023-04-18T11:49:29.119Z,12.61
2023-04-18T11:51:57.581Z,12.57
2023-04-18T11:54:45.427Z,12.59
2023-04-18T11:57:27.687Z,12.57
2023-04-18T12:00:00.020Z,12.59
2023-04-18T12:02:45.776Z,12.56
2023-04-18T12:05:28.239Z,12.43
2023-04-18T12:07:56.712Z,12.40
2023-04-18T12:10:28.194Z,12.42
2023-04-18T12:13:00.394Z,12.42
2023-04-18T12:15:29.970Z,12.35
2023-04-18T12:18:00.303Z,12.35
2023-04-18T12:20:53.966Z,12.35
2023-04-18T12:23:31.560Z,12.45
2023-04-18T12:26:04.002Z,12.47
2023-04-18T12:28:32.434Z,12.55
2023-04-18T12:31:00.468Z,12.61
2023-04-18T12:33:28.085Z,12.63
2023-04-18T12:35:56.156Z,12.72
2023-04-18T12:38:24.315Z,12.76
2023-04-18T12:40:52.538Z,12.82
2023-04-18T12:43:20.082Z,12.90
2023-04-18T12:45:47.911Z,12.96
2023-04-18T12:48:15.580Z,13.01
2023-04-18T12:50:43.041Z,13.05
2023-04-18T12:53:10.843Z,13.04
2023-04-18T12:55:38.517Z,13.08
2023-04-18T12:58:05.996Z,12.97
2023-04-18T13:00:33.861Z,12.89
2023-04-18T13:03:01.554Z,12.81
2023-04-18T13:05:33.123Z,12.81
2023-04-18T13:08:15.243Z,12.87
2023-04-18T13:10:44.704Z,12.96
2023-04-18T13:13:12.582Z,13.19
2023-04-18T13:15:40.320Z,13.29
2023-04-18T13:18:08.077Z,13.45
2023-04-18T13:20:37.224Z,13.49
2023-04-18T13:23:04.757Z,13.48
2023-04-18T13:25:32.434Z,13.39
2023-04-18T13:28:00.923Z,13.34
2023-04-18T13:30:28.758Z,13.32
2023-04-18T13:32:56.892Z,13.40
2023-04-18T13:35:24.785Z,13.44
2023-04-18T13:37:52.296Z,13.51
2023-04-18T13:40:19.848Z,13.58
2023-04-18T13:42:47.598Z,13.61
2023-04-18T13:45:15.097Z,13.76
2023-04-18T13:47:42.813Z,13.86
2023-04-18T13:50:10.966Z,14.00
2023-04-18T13:52:38.530Z,14.04
2023-04-18T13:55:06.820Z,14.04
2023-04-18T13:57:37.022Z,14.05
2023-04-18T14:00:06.643Z,14.09
2023-04-18T14:02:39.440Z,14.18
2023-04-18T14:05:07.972Z,14.21
2023-04-18T14:07:36.399Z,14.13
2023-04-18T14:10:04.748Z,14.14
2023-04-18T14:12:32.671Z,14.15
2023-04-18T14:15:00.176Z,14.17
2023-04-18T14:17:27.751Z,14.15
2023-04-18T14:19:55.618Z,14.11
2023-04-18T14:22:23.664Z,14.11
2023-04-18T14:24:52.479Z,14.10
2023-04-18T14:27:20.827Z,14.13
2023-04-18T14:29:48.948Z,14.19
2023-04-18T14:32:16.399Z,14.24
2023-04-18T14:34:44.233Z,14.28
2023-04-18T14:37:11.715Z,14.31
2023-04-18T14:39:39.264Z,14.32
2023-04-18T14:42:07.043Z,14.32
2023-04-18T14:44:34.491Z,14.33
2023-04-18T14:47:02.162Z,14.37
2023-04-18T14:49:30.140Z,14.40
2023-04-18T14:51:57.556Z,14.41
2023-04-18T14:54:25.091Z,14.45
2023-04-18T14:56:53.159Z,14.47
2023-04-18T14:59:20.913Z,14.55
2023-04-18T15:01:48.824Z,14.62
2023-04-18T15:04:16.947Z,14.62
2023-04-18T15:06:44.711Z,14.60
2023-04-18T15:09:15.490Z,14.51
2023-04-18T15:11:43.358Z,14.49
2023-04-18T15:14:10.990Z,14.51
2023-04-18T15:16:40.824Z,14.43
2023-04-18T15:19:08.864Z,14.38
2023-04-18T15:21:36.462Z,14.37
2023-04-18T15:24:04.060Z,14.35
2023-04-18T15:26:33.251Z,14.27
2023-04-18T15:29:04.047Z,14.24
2023-04-18T15:31:32.569Z,14.18
2023-04-18T15:34:00.308Z,14.17
2023-04-18T15:36:28.822Z,14.15
2023-04-18T15:38:56.645Z,14.13
2023-04-18T15:41:24.182Z,14.12
2023-04-18T15:43:52.807Z,14.10
2023-04-18T15:46:20.732Z,14.10
2023-04-18T15:48:48.237Z,14.08
2023-04-18T15:51:15.754Z,14.06
2023-04-18T15:53:43.839Z,14.05
2023-04-18T15:56:11.548Z,14.07
2023-04-18T15:58:38.999Z,14.06
2023-04-18T16:01:07.139Z,14.06
2023-04-18T16:03:35.164Z,14.07
2023-04-18T16:06:02.812Z,14.10
2023-04-18T16:08:32.643Z,14.12
2023-04-18T16:11:01.088Z,14.12
2023-04-18T16:13:28.741Z,14.14
2023-04-18T16:15:56.276Z,14.13
2023-04-18T16:18:24.122Z,14.12
2023-04-18T16:20:51.852Z,14.15
2023-04-18T16:23:20.534Z,14.13
2023-04-18T16:25:48.732Z,14.11
2023-04-18T16:28:16.363Z,14.05
2023-04-18T16:30:45.115Z,14.00
2023-04-18T16:33:13.180Z,13.95
2023-04-18T16:35:40.985Z,13.94
2023-04-18T16:38:08.660Z,13.93
2023-04-18T16:40:36.639Z,13.92
2023-04-18T16:43:04.186Z,14.42
2023-04-18T16:45:31.696Z,14.79
2023-04-18T16:47:59.534Z,14.94
2023-04-18T16:50:27.121Z,15.32
2023-04-18T16:52:54.643Z,15.40
2023-04-18T16:55:22.550Z,15.32
2023-04-18T16:57:50.950Z,15.37
2023-04-18T17:00:19.071Z,15.35
2023-04-18T17:02:47.498Z,15.35
2023-04-18T17:05:15.074Z,14.89
2023-04-18T17:07:45.416Z,14.57
2023-04-18T17:10:13.305Z,14.39
2023-04-18T17:12:40.975Z,14.22
2023-04-18T17:15:08.676Z,14.08
2023-04-18T17:17:36.572Z,13.98
2023-04-18T17:20:07.036Z,13.84
2023-04-18T17:22:34.834Z,13.77
2023-04-18T17:25:03.116Z,13.73
2023-04-18T17:27:30.639Z,13.70
2023-04-18T17:29:58.272Z,13.65
2023-04-18T17:32:26.064Z,13.57
2023-04-18T17:34:53.942Z,13.54
2023-04-18T17:37:22.424Z,13.50
2023-04-18T17:39:50.213Z,13.45
2023-04-18T17:42:19.789Z,13.45
2023-04-18T17:44:47.250Z,13.40
2023-04-18T17:47:15.131Z,13.38
2023-04-18T17:49:42.661Z,13.36
2023-04-18T17:52:10.305Z,13.30
2023-04-18T17:54:38.108Z,13.29
2023-04-18T17:57:05.553Z,13.26
2023-04-18T17:59:37.555Z,13.23
2023-04-18T18:02:05.996Z,13.18
2023-04-18T18:04:34.012Z,13.16
2023-04-18T18:07:01.956Z,13.14
2023-04-18T18:09:29.433Z,13.06
2023-04-18T18:11:57.502Z,13.03
2023-04-18T18:14:27.366Z,12.95
2023-04-18T18:16:54.916Z,12.96
2023-04-18T18:19:22.751Z,12.93
2023-04-18T18:21:50.620Z,12.88
2023-04-18T18:24:18.764Z,12.84
2023-04-18T18:26:46.684Z,12.85
2023-04-18T18:29:14.328Z,12.85
2023-04-18T18:31:42.070Z,12.85
2023-04-18T18:34:09.917Z,12.76
2023-04-18T18:36:37.522Z,12.75
2023-04-18T18:39:05.016Z,12.73
2023-04-18T18:41:32.824Z,12.74
2023-04-18T18:44:00.336Z,12.69
2023-04-18T18:46:27.886Z,12.65
2023-04-18T18:48:55.875Z,12.61
2023-04-18T18:51:23.879Z,12.60
2023-04-18T18:53:51.346Z,12.57
2023-04-18T18:56:19.319Z,12.54
2023-04-18T18:58:46.976Z,12.51
2023-04-18T19:01:14.505Z,12.48
2023-04-18T19:03:42.569Z,12.49
2023-04-18T19:06:10.228Z,12.44
2023-04-18T19:08:37.717Z,12.47
2023-04-18T19:11:05.544Z,12.45
2023-04-18T19:13:33.190Z,12.44
2023-04-18T19:16:00.737Z,12.46
2023-04-18T19:18:28.570Z,12.47
2023-04-18T19:20:56.098Z,12.45
2023-04-18T19:23:25.281Z,12.47
2023-04-18T19:25:53.096Z,12.46
2023-04-18T19:28:21.752Z,12.44
2023-04-18T19:30:50.381Z,12.47
2023-04-18T19:33:18.264Z,12.46
2023-04-18T19:35:45.793Z,12.45
2023-04-18T19:38:13.270Z,12.45
2023-04-18T19:40:41.081Z,12.44
2023-04-18T19:43:08.784Z,12.44
2023-04-18T19:45:36.616Z,12.45
2023-04-18T19:48:04.739Z,12.45
2023-04-18T19:50:32.452Z,12.47
2023-04-18T19:53:00.129Z,12.46
2023-04-18T19:55:28.481Z,12.45
2023-04-18T19:57:59.132Z,12.47
2023-04-18T20:00:26.731Z,12.48
2023-04-18T20:02:54.816Z,12.46
2023-04-18T20:05:22.760Z,12.47
2023-04-18T20:07:50.551Z,12.42
2023-04-18T20:10:22.077Z,12.43
2023-04-18T20:12:50.165Z,12.42
2023-04-18T20:15:18.182Z,12.43
2023-04-18T20:17:45.771Z,12.42
2023-04-18T20:20:13.353Z,12.40
2023-04-18T20:22:43.065Z,12.40
2023-04-18T20:25:10.615Z,12.41
2023-04-18T20:27:38.673Z,12.43
2023-04-18T20:30:06.810Z,12.40
2023-04-18T20:32:34.693Z,12.37
2023-04-18T20:35:02.902Z,12.39
2023-04-18T20:37:31.067Z,12.35
2023-04-18T20:39:58.809Z,12.33
2023-04-18T20:42:27.204Z,12.31
2023-04-18T20:44:55.000Z,12.32
2023-04-18T20:47:22.544Z,12.30
2023-04-18T20:49:50.097Z,12.27
2023-04-18T20:52:17.885Z,12.27
2023-04-18T20:54:45.582Z,12.22
2023-04-18T20:57:13.075Z,12.25
2023-04-18T20:59:40.909Z,12.22
2023-04-18T21:02:08.586Z,12.24
2023-04-18T21:04:36.382Z,12.22
2023-04-18T21:07:04.349Z,12.22
2023-04-18T21:09:36.443Z,12.18
2023-04-18T21:12:05.360Z,12.20
2023-04-18T21:14:32.896Z,12.12
2023-04-18T21:17:00.471Z,12.06
2023-04-18T21:19:28.275Z,11.98
2023-04-18T21:21:55.777Z,11.99
2023-04-18T21:24:23.414Z,11.94
2023-04-18T21:26:51.277Z,11.92
2023-04-18T21:29:18.786Z,11.74
2023-04-18T21:31:47.387Z,11.70
2023-04-18T21:34:15.545Z,11.71
2023-04-18T21:36:43.162Z,11.66
2023-04-18T21:39:10.690Z,11.66
2023-04-18T21:41:38.555Z,11.61
2023-04-18T21:44:06.095Z,11.54
2023-04-18T21:46:33.714Z,11.48
2023-04-18T21:49:01.550Z,11.47
2023-04-18T21:51:29.229Z,11.41
2023-04-18T21:53:56.738Z,11.34
2023-04-18T21:56:24.620Z,11.33
2023-04-18T21:58:52.146Z,11.28
2023-04-18T22:01:19.702Z,11.25
2023-04-18T22:03:47.683Z,11.18
2023-04-18T22:06:16.234Z,11.18
2023-04-18T22:08:43.891Z,11.15
2023-04-18T22:11:12.441Z,11.09
2023-04-18T22:13:39.965Z,11.05
2023-04-18T22:16:09.527Z,11.04
2023-04-18T22:18:38.193Z,11.02
2023-04-18T22:21:06.196Z,10.97
2023-04-18T22:23:33.752Z,10.94
2023-04-18T22:26:01.717Z,10.93
2023-04-18T22:28:29.487Z,10.93
2023-04-18T22:30:57.060Z,10.88
2023-04-18T22:33:25.231Z,10.90
2023-04-18T22:35:52.906Z,10.83
2023-04-18T22:38:20.448Z,10.80
2023-04-18T22:40:48.252Z,10.77
2023-04-18T22:43:15.874Z,10.78
2023-04-18T22:45:43.361Z,10.82
2023-04-18T22:48:13.356Z,10.80
2023-04-18T22:50:43.630Z,10.83
2023-04-18T22:53:11.645Z,10.84
2023-04-18T22:55:40.785Z,10.84
2023-04-18T22:58:08.802Z,10.87
2023-04-18T23:00:37.405Z,10.86
2023-04-18T23:03:05.626Z,10.85
2023-04-18T23:05:34.299Z,10.87
2023-04-18T23:08:02.281Z,10.89
2023-04-18T23:10:29.765Z,10.88
2023-04-18T23:12:57.202Z,10.88
2023-04-18T23:15:26.335Z,10.85
2023-04-18T23:17:54.198Z,10.89
2023-04-18T23:20:23.935Z,10.85
2023-04-18T23:22:52.785Z,10.84
2023-04-18T23:25:20.935Z,10.86
2023-04-18T23:27:48.468Z,10.83
2023-04-18T23:30:16.348Z,10.82
2023-04-18T23:32:44.117Z,10.83
2023-04-18T23:35:11.722Z,10.80
2023-04-18T23:37:39.570Z,10.80
2023-04-18T23:40:08.041Z,10.78
2023-04-18T23:42:35.951Z,10.78
2023-04-18T23:45:04.263Z,10.79
2023-04-18T23:47:31.940Z,10.77
2023-04-18T23:49:59.468Z,10.74
2023-04-18T23:52:27.315Z,10.75
2023-04-18T23:54:55.485Z,10.71
2023-04-18T23:57:22.948Z,10.68
2023-04-18T23:59:50.733Z,10.71
